Weather at Puivert Airfield

Public forecast

Using degrees Celsius for public forecast. Weather courtesy of forecast.io.

Closest aviation weather report (METAR) to Puivert Airfield

Closest report is Carcassonne Airport, 21.3 nm (39.5 km) NNE. Retrieved 2020/09/23 13:30 UTC (0 seconds ago):

LFMK 231330Z AUTO 07010KT 030V110 CAVOK 28/16 Q1009 NOSIG

Closest aviation forecast (TAF) to Puivert Airfield

Closest forecast is Carcassonne Airport, 21.3 nm (39.5 km) NNE. Retrieved 2020/09/23 09:51 UTC (3 hours ago):

TAF TAF LFMK 230800Z 2309/2409 VRB04KT CAVOK BECMG 2318/2320 28010KT TEMPO 2320/2404 SHRA BKN014 SCT020TCU BKN050 BECMG 2404/2406 SCT020